Time;durP1;ratioP1;P1;durP2;ratioP2;P2;SDS_P1;SDS_P2;PMS_P1;PMS_P2;Temp;Humidity;BMP_temperature;BMP_pressure;BME280_temperature;BME280_humidity;BME280_pressure;Samples;Min_cycle;Max_cycle;Signal;HPM_P1;HPM_P2
2022/12/04 00:00:49;;;;;;;;;;;;;;;;;;5088589;28;20364;-69
2022/12/04 00:03:14;;;;;;;;;;;;;;;;;;5085680;28;20248;-69
2022/12/04 00:05:39;;;;;;;;;;;;;;;;;;5083624;28;20339;-64
2022/12/04 00:08:04;;;;;;;;;;;;;;;;;;5091905;28;20031;-63
2022/12/04 00:10:30;;;;;;;;;;;;;;;;;;5086811;28;20749;-63
2022/12/04 00:12:55;;;;;;;;;;;;;;;;;;5092749;28;20569;-62
2022/12/04 00:15:20;;;;;;;;;;;;;;;;;;5093309;28;19963;-63
2022/12/04 00:17:46;;;;;;;;;;;;;;;;;;5092883;28;19932;-64
2022/12/04 00:20:12;;;;;;;;;;;;;;;;;;5092058;28;19924;-63
2022/12/04 00:22:37;;;;;;;;;;;;;;;;;;5082835;28;19924;-63
2022/12/04 00:25:02;;;;;;;;;;;;;;;;;;5083679;28;19935;-61
2022/12/04 00:27:28;;;;;;;;;;;;;;;;;;5087943;28;20008;-74
2022/12/04 00:29:53;;;;;;;;;;;;;;;;;;5091842;28;19934;-72
2022/12/04 00:32:18;;;;;;;;;;;;;;;;;;5092200;28;19935;-63
2022/12/04 00:34:44;;;;;;;;;;;;;;;;;;5088301;28;19977;-62
2022/12/04 00:37:09;;;;;;;;;;;;;;;;;;5084309;28;19932;-61
2022/12/04 00:39:34;;;;;;;;;;;;;;;;;;5090722;28;20353;-61
2022/12/04 00:41:59;;;;;;;;;;;;;;;;;;5087867;28;19928;-61
2022/12/04 00:44:25;;;;;;;;;;;;;;;;;;5082462;28;19924;-61
2022/12/04 00:46:50;;;;;;;;;;;;;;;;;;5092882;28;19923;-62
2022/12/04 00:49:15;;;;;;;;;;;;;;;;;;5090713;28;20467;-62
2022/12/04 00:51:40;;;;;;;;;;;;;;;;;;5084379;28;19927;-61
2022/12/04 00:54:06;;;;;;;;;;;;;;;;;;5081320;28;19975;-62
2022/12/04 00:56:31;;;;;;;;;;;;;;;;;;5085623;28;19928;-60
2022/12/04 00:58:57;;;;;;;;;;;;;;;;;;5081045;28;20705;-61
2022/12/04 01:01:23;;;;;;;;;;;;;;;;;;5081220;28;19924;-61
2022/12/04 01:03:49;;;;;;;;;;;;;;;;;;5087472;28;20006;-61
2022/12/04 01:06:32;;;;;;;;;;;;;;;;;;5086135;28;20383;-55
2022/12/04 01:08:58;;;;;;;;;;;;;;;;;;5078833;28;20280;-58
2022/12/04 01:11:25;;;;;;;;;;;;;;;;;;5080193;28;19931;-56
2022/12/04 01:13:51;;;;;;;;;;;;;;;;;;5082424;28;19924;-55
2022/12/04 01:16:17;;;;;;;;;;;;;;;;;;5087040;28;20349;-57
2022/12/04 01:18:42;;;;;;;;;;;;;;;;;;5087070;28;19927;-55
2022/12/04 01:21:08;;;;;;;;;;;;;;;;;;5086414;28;19932;-57
2022/12/04 01:23:33;;;;;;;;;;;;;;;;;;5084846;28;19943;-55
2022/12/04 01:25:58;;;;;;;;;;;;;;;;;;5083461;28;20060;-54
2022/12/04 01:28:24;;;;;;;;;;;;;;;;;;5083055;28;20404;-55
2022/12/04 01:31:22;;;;;;;;;;;;;;;;;;5088136;28;20342;-63
2022/12/04 01:33:48;;;;;;;;;;;;;;;;;;5076422;28;19920;-63
2022/12/04 01:36:15;;;;;;;;;;;;;;;;;;5081597;28;20243;-61
2022/12/04 01:38:40;;;;;;;;;;;;;;;;;;5080927;28;20603;-61
2022/12/04 01:41:06;;;;;;;;;;;;;;;;;;5080407;28;19932;-61
2022/12/04 01:43:32;;;;;;;;;;;;;;;;;;5106898;28;20442;-58
2022/12/04 01:45:59;;;;;;;;;;;;;;;;;;5087566;28;19919;-61
2022/12/04 01:48:29;;;;;;;;;;;;;;;;;;5088826;28;19928;-61
2022/12/04 01:50:57;;;;;;;;;;;;;;;;;;5092584;28;19975;-60
2022/12/04 01:53:23;;;;;;;;;;;;;;;;;;5092433;28;20331;-60
2022/12/04 01:55:49;;;;;;;;;;;;;;;;;;5084643;28;19952;-62
2022/12/04 01:58:14;;;;;;;;;;;;;;;;;;5086217;28;20014;-63
2022/12/04 02:00:39;;;;;;;;;;;;;;;;;;5090693;28;20387;-71
2022/12/04 02:03:05;;;;;;;;;;;;;;;;;;5083644;28;19928;-71
2022/12/04 02:05:30;;;;;;;;;;;;;;;;;;5084442;28;19978;-70
2022/12/04 02:07:58;;;;;;;;;;;;;;;;;;5085612;28;19928;-70
2022/12/04 02:10:30;;;;;;;;;;;;;;;;;;5088878;28;19940;-71
2022/12/04 02:13:06;;;;;;;;;;;;;;;;;;5089355;28;20086;-71
2022/12/04 02:15:34;;;;;;;;;;;;;;;;;;5085079;28;19932;-71
2022/12/04 02:18:09;;;;;;;;;;;;;;;;;;5084813;28;19976;-70
2022/12/04 02:20:52;;;;;;;;;;;;;;;;;;5087306;28;20279;-70
2022/12/04 02:23:18;;;;;;;;;;;;;;;;;;5084209;28;19928;-71
2022/12/04 02:25:52;;;;;;;;;;;;;;;;;;5084343;28;19924;-71
2022/12/04 02:28:43;;;;;;;;;;;;;;;;;;5083633;28;19932;-71
2022/12/04 02:31:12;;;;;;;;;;;;;;;;;;5085844;28;19928;-71
2022/12/04 02:33:48;;;;;;;;;;;;;;;;;;5086069;28;20365;-71
2022/12/04 02:36:26;;;;;;;;;;;;;;;;;;5104492;28;20311;-71
2022/12/04 02:38:57;;;;;;;;;;;;;;;;;;5079343;28;19932;-71
2022/12/04 02:41:35;;;;;;;;;;;;;;;;;;5087221;28;19980;-70
2022/12/04 02:44:03;;;;;;;;;;;;;;;;;;5082876;28;19975;-70
2022/12/04 02:46:29;;;;;;;;;;;;;;;;;;5087526;28;19935;-70
2022/12/04 02:48:56;;;;;;;;;;;;;;;;;;5078802;28;20300;-72
2022/12/04 02:51:22;;;;;;;;;;;;;;;;;;5084140;28;19924;-70
2022/12/04 02:53:56;;;;;;;;;;;;;;;;;;5089119;28;19928;-70
2022/12/04 02:56:27;;;;;;;;;;;;;;;;;;5082590;28;19928;-70
2022/12/04 02:59:01;;;;;;;;;;;;;;;;;;5083173;28;20014;-70
2022/12/04 03:01:35;;;;;;;;;;;;;;;;;;5080488;28;20031;-71
2022/12/04 03:04:03;;;;;;;;;;;;;;;;;;5076358;28;19928;-69
2022/12/04 03:06:30;;;;;;;;;;;;;;;;;;5077276;28;19924;-70
2022/12/04 03:09:08;;;;;;;;;;;;;;;;;;5083026;28;19939;-70
2022/12/04 03:11:34;;;;;;;;;;;;;;;;;;5074517;28;19939;-70
2022/12/04 03:14:03;;;;;;;;;;;;;;;;;;5072561;28;19924;-70
2022/12/04 03:16:31;;;;;;;;;;;;;;;;;;5079209;28;19938;-71
2022/12/04 03:19:06;;;;;;;;;;;;;;;;;;5080307;28;19924;-71
2022/12/04 03:21:34;;;;;;;;;;;;;;;;;;5082660;28;19931;-70
2022/12/04 03:24:06;;;;;;;;;;;;;;;;;;5075523;28;19932;-71
2022/12/04 03:26:41;;;;;;;;;;;;;;;;;;5075972;28;19932;-71
2022/12/04 03:29:12;;;;;;;;;;;;;;;;;;5079388;28;19967;-71
2022/12/04 03:31:49;;;;;;;;;;;;;;;;;;5082655;28;19924;-71
2022/12/04 03:34:19;;;;;;;;;;;;;;;;;;5080381;28;20426;-70
2022/12/04 03:36:48;;;;;;;;;;;;;;;;;;5082503;28;19924;-67
2022/12/04 03:39:19;;;;;;;;;;;;;;;;;;5086718;28;20394;-70
2022/12/04 03:41:51;;;;;;;;;;;;;;;;;;5082419;28;19924;-70
2022/12/04 03:44:22;;;;;;;;;;;;;;;;;;5094642;28;19924;-69
2022/12/04 03:46:53;;;;;;;;;;;;;;;;;;5083726;28;19932;-70
2022/12/04 03:49:28;;;;;;;;;;;;;;;;;;5081670;28;19928;-70
2022/12/04 03:51:59;;;;;;;;;;;;;;;;;;5088092;28;20272;-69
2022/12/04 03:54:35;;;;;;;;;;;;;;;;;;5081978;28;19920;-70
2022/12/04 03:57:04;;;;;;;;;;;;;;;;;;5087348;28;20015;-71
2022/12/04 03:59:36;;;;;;;;;;;;;;;;;;5081314;28;19929;-70
2022/12/04 04:02:03;;;;;;;;;;;;;;;;;;5081294;28;20298;-70
2022/12/04 04:04:31;;;;;;;;;;;;;;;;;;5078105;28;19924;-70
2022/12/04 04:07:00;;;;;;;;;;;;;;;;;;5084591;28;20087;-69
2022/12/04 04:09:27;;;;;;;;;;;;;;;;;;5086327;28;20545;-70
2022/12/04 04:11:52;;;;;;;;;;;;;;;;;;5084292;28;19930;-70
2022/12/04 04:25:26;;;;;;;;;;;;;;;;;;5082413;28;20282;-70
2022/12/04 04:27:57;;;;;;;;;;;;;;;;;;5080250;28;20033;-70
2022/12/04 04:30:22;;;;;;;;;;;;;;;;;;5099712;28;19920;-69
2022/12/04 04:33:08;;;;;;;;;;;;;;;;;;5081430;28;19924;-70
2022/12/04 04:35:52;;;;;;;;;;;;;;;;;;5081579;28;19961;-70
2022/12/04 04:38:23;;;;;;;;;;;;;;;;;;5081098;28;20341;-70
2022/12/04 04:40:52;;;;;;;;;;;;;;;;;;5077638;28;19928;-70
2022/12/04 04:43:21;;;;;;;;;;;;;;;;;;5081160;28;20014;-70
2022/12/04 04:45:50;;;;;;;;;;;;;;;;;;5080528;28;19938;-71
2022/12/04 04:48:17;;;;;;;;;;;;;;;;;;5082943;28;19927;-69
2022/12/04 04:50:43;;;;;;;;;;;;;;;;;;5081237;28;19935;-69
2022/12/04 04:53:11;;;;;;;;;;;;;;;;;;5075899;28;19932;-69
2022/12/04 04:55:37;;;;;;;;;;;;;;;;;;5081402;28;20085;-70
2022/12/04 04:58:09;;;;;;;;;;;;;;;;;;5096699;28;20007;-70
2022/12/04 05:00:35;;;;;;;;;;;;;;;;;;5076570;28;19920;-70
2022/12/04 05:03:00;;;;;;;;;;;;;;;;;;5085592;28;19946;-70
2022/12/04 05:05:26;;;;;;;;;;;;;;;;;;5088747;28;19932;-57
2022/12/04 05:07:51;;;;;;;;;;;;;;;;;;5086341;28;19974;-56
2022/12/04 05:10:16;;;;;;;;;;;;;;;;;;5087576;28;19932;-57
2022/12/04 05:12:42;;;;;;;;;;;;;;;;;;5091052;28;19931;-56
2022/12/04 05:15:07;;;;;;;;;;;;;;;;;;5088826;28;19946;-54
2022/12/04 05:17:33;;;;;;;;;;;;;;;;;;5085810;28;19932;-56
2022/12/04 05:19:59;;;;;;;;;;;;;;;;;;5082435;28;19935;-58
2022/12/04 05:22:31;;;;;;;;;;;;;;;;;;5086756;28;19929;-55
2022/12/04 05:24:57;;;;;;;;;;;;;;;;;;5094294;28;19928;-55
2022/12/04 05:27:23;;;;;;;;;;;;;;;;;;5081167;28;19921;-57
2022/12/04 05:29:50;;;;;;;;;;;;;;;;;;5082758;28;19928;-54
2022/12/04 05:32:16;;;;;;;;;;;;;;;;;;5079481;28;20371;-53
2022/12/04 05:34:41;;;;;;;;;;;;;;;;;;5082252;28;19924;-57
2022/12/04 05:37:06;;;;;;;;;;;;;;;;;;5079955;28;19998;-52
2022/12/04 05:39:32;;;;;;;;;;;;;;;;;;5077205;28;19921;-57
2022/12/04 05:41:57;;;;;;;;;;;;;;;;;;5076247;28;19928;-54
2022/12/04 05:44:23;;;;;;;;;;;;;;;;;;5097814;28;21063;-57
2022/12/04 05:46:48;;;;;;;;;;;;;;;;;;5085055;28;19970;-55
2022/12/04 05:49:13;;;;;;;;;;;;;;;;;;5081730;28;19951;-56
2022/12/04 05:51:39;;;;;;;;;;;;;;;;;;5084802;28;19935;-58
2022/12/04 05:54:04;;;;;;;;;;;;;;;;;;5080062;28;20342;-57
2022/12/04 05:56:29;;;;;;;;;;;;;;;;;;5083189;28;19925;-52
2022/12/04 05:58:55;;;;;;;;;;;;;;;;;;5079446;28;19932;-57
2022/12/04 06:01:21;;;;;;;;;;;;;;;;;;5081258;28;19932;-56
2022/12/04 06:03:47;;;;;;;;;;;;;;;;;;5082661;28;19928;-55
2022/12/04 06:06:17;;;;;;;;;;;;;;;;;;5082210;28;19923;-52
2022/12/04 06:08:42;;;;;;;;;;;;;;;;;;5098906;28;20375;-55
2022/12/04 06:11:15;;;;;;;;;;;;;;;;;;5080757;28;19932;-55
2022/12/04 06:13:41;;;;;;;;;;;;;;;;;;5082555;28;19928;-54
2022/12/04 06:16:10;;;;;;;;;;;;;;;;;;5079821;28;20397;-55
2022/12/04 06:18:36;;;;;;;;;;;;;;;;;;5083734;28;19924;-54
2022/12/04 06:21:01;;;;;;;;;;;;;;;;;;5073873;28;20456;-49
2022/12/04 06:23:26;;;;;;;;;;;;;;;;;;5082929;28;20429;-57
2022/12/04 06:25:52;;;;;;;;;;;;;;;;;;5084250;28;19928;-61
2022/12/04 06:28:17;;;;;;;;;;;;;;;;;;5080701;28;19924;-54
2022/12/04 06:30:42;;;;;;;;;;;;;;;;;;5075904;28;20421;-57
2022/12/04 06:33:07;;;;;;;;;;;;;;;;;;5082241;28;20003;-53
2022/12/04 06:35:33;;;;;;;;;;;;;;;;;;5083555;28;19939;-53
2022/12/04 06:37:58;;;;;;;;;;;;;;;;;;5079210;28;19936;-60
2022/12/04 06:40:23;;;;;;;;;;;;;;;;;;5073489;28;19989;-54
2022/12/04 06:42:49;;;;;;;;;;;;;;;;;;5083148;28;19978;-58
2022/12/04 06:45:14;;;;;;;;;;;;;;;;;;5085182;28;19969;-54
2022/12/04 06:47:39;;;;;;;;;;;;;;;;;;5084238;28;20030;-56
2022/12/04 06:50:05;;;;;;;;;;;;;;;;;;5080779;28;19967;-55
2022/12/04 06:52:33;;;;;;;;;;;;;;;;;;5080916;28;19939;-53
2022/12/04 06:54:58;;;;;;;;;;;;;;;;;;5077241;28;19924;-53
2022/12/04 06:57:23;;;;;;;;;;;;;;;;;;5077964;28;20279;-57
2022/12/04 06:59:49;;;;;;;;;;;;;;;;;;5077077;28;19929;-52
2022/12/04 07:02:14;;;;;;;;;;;;;;;;;;5081582;28;19935;-51
2022/12/04 07:04:39;;;;;;;;;;;;;;;;;;5082037;28;20165;-50
2022/12/04 07:07:06;;;;;;;;;;;;;;;;;;5081414;28;20468;-65
2022/12/04 07:09:32;;;;;;;;;;;;;;;;;;5083196;28;19924;-65
2022/12/04 07:11:57;;;;;;;;;;;;;;;;;;5082004;28;19982;-57
2022/12/04 07:14:22;;;;;;;;;;;;;;;;;;5080869;28;19931;-57
2022/12/04 07:16:47;;;;;;;;;;;;;;;;;;5077576;28;20375;-58
2022/12/04 07:19:13;;;;;;;;;;;;;;;;;;5080145;28;19977;-57
2022/12/04 07:21:38;;;;;;;;;;;;;;;;;;5098715;28;19920;-59
2022/12/04 07:24:04;;;;;;;;;;;;;;;;;;5080596;28;19931;-58
2022/12/04 07:26:29;;;;;;;;;;;;;;;;;;5081311;28;19924;-58
2022/12/04 07:28:55;;;;;;;;;;;;;;;;;;5078461;28;19924;-60
2022/12/04 07:31:22;;;;;;;;;;;;;;;;;;5081518;28;20488;-57
2022/12/04 07:33:48;;;;;;;;;;;;;;;;;;5078673;28;19969;-60
2022/12/04 07:36:14;;;;;;;;;;;;;;;;;;5081586;28;20312;-58
2022/12/04 07:38:40;;;;;;;;;;;;;;;;;;5075278;28;19928;-58
2022/12/04 07:41:06;;;;;;;;;;;;;;;;;;5077328;28;20382;-55
2022/12/04 07:43:32;;;;;;;;;;;;;;;;;;5073936;28;21002;-57
2022/12/04 07:45:57;;;;;;;;;;;;;;;;;;5079769;28;20084;-58
2022/12/04 07:48:23;;;;;;;;;;;;;;;;;;5083013;28;20022;-58
2022/12/04 07:50:48;;;;;;;;;;;;;;;;;;5083275;28;19928;-58
2022/12/04 07:53:13;;;;;;;;;;;;;;;;;;5084215;28;19928;-59
2022/12/04 07:55:39;;;;;;;;;;;;;;;;;;5078949;28;19929;-64
2022/12/04 07:58:04;;;;;;;;;;;;;;;;;;5078340;28;19936;-61
2022/12/04 08:00:30;;;;;;;;;;;;;;;;;;5078518;28;19924;-57
2022/12/04 08:02:55;;;;;;;;;;;;;;;;;;5076493;28;19931;-58
2022/12/04 08:05:20;;;;;;;;;;;;;;;;;;5085349;28;19928;-57
2022/12/04 08:07:46;;;;;;;;;;;;;;;;;;5084788;28;19939;-58
2022/12/04 08:10:11;;;;;;;;;;;;;;;;;;5087615;28;19966;-60
2022/12/04 08:12:36;;;;;;;;;;;;;;;;;;5079945;28;19928;-57
2022/12/04 08:15:02;;;;;;;;;;;;;;;;;;5083801;28;19933;-59
2022/12/04 08:17:27;;;;;;;;;;;;;;;;;;5079779;28;20041;-59
2022/12/04 08:19:52;;;;;;;;;;;;;;;;;;5080553;28;20319;-58
2022/12/04 08:22:18;;;;;;;;;;;;;;;;;;5081222;28;19932;-60
2022/12/04 08:24:43;;;;;;;;;;;;;;;;;;5081233;28;20379;-57
2022/12/04 08:27:08;;;;;;;;;;;;;;;;;;5080426;28;20413;-59
2022/12/04 08:29:34;;;;;;;;;;;;;;;;;;5082487;28;19932;-59
2022/12/04 08:31:59;;;;;;;;;;;;;;;;;;5083754;28;20341;-56
2022/12/04 08:34:24;;;;;;;;;;;;;;;;;;5081577;28;19927;-58
2022/12/04 08:36:50;;;;;;;;;;;;;;;;;;5081822;28;19924;-59
2022/12/04 08:39:15;;;;;;;;;;;;;;;;;;5075935;28;19931;-58
2022/12/04 08:41:40;;;;;;;;;;;;;;;;;;5076834;28;20721;-59
2022/12/04 08:44:06;;;;;;;;;;;;;;;;;;5083776;28;20422;-60
2022/12/04 08:46:31;;;;;;;;;;;;;;;;;;5080148;28;19932;-55
2022/12/04 08:48:57;;;;;;;;;;;;;;;;;;5085315;28;19929;-60
2022/12/04 08:51:24;;;;;;;;;;;;;;;;;;5083189;28;19924;-59
2022/12/04 08:53:56;;;;;;;;;;;;;;;;;;5079713;28;19924;-59
2022/12/04 08:56:22;;;;;;;;;;;;;;;;;;5078024;28;19924;-59
2022/12/04 08:58:48;;;;;;;;;;;;;;;;;;5076283;28;22140;-59
2022/12/04 09:01:13;;;;;;;;;;;;;;;;;;5083822;28;19978;-57
2022/12/04 09:03:39;;;;;;;;;;;;;;;;;;5075048;28;20046;-58
2022/12/04 09:06:05;;;;;;;;;;;;;;;;;;5081166;28;19971;-59
2022/12/04 09:08:30;;;;;;;;;;;;;;;;;;5078970;28;19924;-61
2022/12/04 09:11:06;;;;;;;;;;;;;;;;;;5084277;28;20503;-60
2022/12/04 09:13:31;;;;;;;;;;;;;;;;;;5079007;28;19935;-60
2022/12/04 09:15:56;;;;;;;;;;;;;;;;;;5075380;28;19928;-58
2022/12/04 09:18:22;;;;;;;;;;;;;;;;;;5077040;28;19986;-60
2022/12/04 09:20:57;;;;;;;;;;;;;;;;;;5076012;28;19963;-60
2022/12/04 09:23:23;;;;;;;;;;;;;;;;;;5077480;28;20391;-62
2022/12/04 09:25:48;;;;;;;;;;;;;;;;;;5079429;28;19928;-60
2022/12/04 09:28:13;;;;;;;;;;;;;;;;;;5085863;28;19928;-61
2022/12/04 09:30:39;;;;;;;;;;;;;;;;;;5084723;28;20470;-61
2022/12/04 09:33:04;;;;;;;;;;;;;;;;;;5086713;28;19924;-60
2022/12/04 09:35:29;;;;;;;;;;;;;;;;;;5090634;28;19949;-59
2022/12/04 09:37:55;;;;;;;;;;;;;;;;;;5078450;28;20490;-61
2022/12/04 09:40:28;;;;;;;;;;;;;;;;;;5077610;28;19928;-61
2022/12/04 09:42:59;;;;;;;;;;;;;;;;;;5079243;28;20383;-61
2022/12/04 09:45:25;;;;;;;;;;;;;;;;;;5080566;28;20035;-62
2022/12/04 09:47:58;;;;;;;;;;;;;;;;;;5082193;28;20549;-61
2022/12/04 09:50:40;;;;;;;;;;;;;;;;;;5082837;28;20316;-61
2022/12/04 09:53:28;;;;;;;;;;;;;;;;;;5079442;28;19928;-61
2022/12/04 09:55:57;;;;;;;;;;;;;;;;;;5071252;28;19932;-60
2022/12/04 09:58:27;;;;;;;;;;;;;;;;;;5079657;28;19928;-62
2022/12/04 10:00:53;;;;;;;;;;;;;;;;;;5083574;28;19967;-62
2022/12/04 10:03:19;;;;;;;;;;;;;;;;;;5085130;28;20345;-61
2022/12/04 10:05:47;;;;;;;;;;;;;;;;;;5081285;28;19924;-61
2022/12/04 10:08:21;;;;;;;;;;;;;;;;;;5098480;28;19932;-62
2022/12/04 10:10:55;;;;;;;;;;;;;;;;;;5080058;28;20035;-62
2022/12/04 10:13:20;;;;;;;;;;;;;;;;;;5076514;28;19970;-60
2022/12/04 10:15:55;;;;;;;;;;;;;;;;;;5089831;28;19968;-63
2022/12/04 10:18:26;;;;;;;;;;;;;;;;;;5073904;28;19959;-64
2022/12/04 10:20:55;;;;;;;;;;;;;;;;;;5077917;28;20375;-65
2022/12/04 10:23:39;;;;;;;;;;;;;;;;;;5078983;28;19935;-64
2022/12/04 10:26:10;;;;;;;;;;;;;;;;;;5083454;28;20393;-63
2022/12/04 10:28:38;;;;;;;;;;;;;;;;;;5076145;28;19924;-63
2022/12/04 10:31:05;;;;;;;;;;;;;;;;;;5078021;28;20018;-63
2022/12/04 10:33:36;;;;;;;;;;;;;;;;;;5076687;28;20366;-63
2022/12/04 10:36:01;;;;;;;;;;;;;;;;;;5078824;28;19951;-64
2022/12/04 10:38:33;;;;;;;;;;;;;;;;;;5077571;28;20375;-64
2022/12/04 10:41:10;;;;;;;;;;;;;;;;;;5078875;28;20436;-62
2022/12/04 10:43:46;;;;;;;;;;;;;;;;;;5079089;28;19931;-63
2022/12/04 10:46:14;;;;;;;;;;;;;;;;;;5063046;28;20170;-62
2022/12/04 10:48:42;;;;;;;;;;;;;;;;;;5060999;28;19971;-64
2022/12/04 10:51:12;;;;;;;;;;;;;;;;;;5063610;28;19924;-63
2022/12/04 10:53:38;;;;;;;;;;;;;;;;;;5058607;28;19925;-63
2022/12/04 10:56:14;;;;;;;;;;;;;;;;;;5056419;28;20466;-63
2022/12/04 10:58:39;;;;;;;;;;;;;;;;;;5059864;28;19950;-62
2022/12/04 11:01:06;;;;;;;;;;;;;;;;;;5062247;28;19932;-62
2022/12/04 11:03:32;;;;;;;;;;;;;;;;;;5059339;28;19936;-64
2022/12/04 11:06:00;;;;;;;;;;;;;;;;;;5056370;28;19929;-63
2022/12/04 11:08:26;;;;;;;;;;;;;;;;;;5060779;28;20002;-62
2022/12/04 11:11:00;;;;;;;;;;;;;;;;;;5058632;28;20334;-63
2022/12/04 11:13:25;;;;;;;;;;;;;;;;;;5057770;28;20027;-65
2022/12/04 11:15:52;;;;;;;;;;;;;;;;;;5058863;28;20008;-62
2022/12/04 11:18:18;;;;;;;;;;;;;;;;;;5058193;28;19940;-62
2022/12/04 11:20:55;;;;;;;;;;;;;;;;;;5057408;28;19939;-61
2022/12/04 11:23:20;;;;;;;;;;;;;;;;;;5060692;28;20024;-61
2022/12/04 11:25:50;;;;;;;;;;;;;;;;;;5059727;28;19932;-63
2022/12/04 11:28:18;;;;;;;;;;;;;;;;;;5060959;28;19931;-62
2022/12/04 11:30:55;;;;;;;;;;;;;;;;;;5056115;28;19924;-61
2022/12/04 11:33:34;;;;;;;;;;;;;;;;;;5056649;28;19935;-61
2022/12/04 11:36:01;;;;;;;;;;;;;;;;;;5058778;28;19928;-61
2022/12/04 11:38:27;;;;;;;;;;;;;;;;;;5060011;28;19932;-62
2022/12/04 11:40:54;;;;;;;;;;;;;;;;;;5063877;28;20311;-61
2022/12/04 11:43:20;;;;;;;;;;;;;;;;;;5063433;28;19928;-61
2022/12/04 11:46:05;;;;;;;;;;;;;;;;;;5067444;28;19924;-63
2022/12/04 11:48:39;;;;;;;;;;;;;;;;;;5064688;28;19977;-62
2022/12/04 11:51:07;;;;;;;;;;;;;;;;;;5060720;28;19935;-65
2022/12/04 11:53:39;;;;;;;;;;;;;;;;;;5058838;28;19939;-64
2022/12/04 11:56:16;;;;;;;;;;;;;;;;;;5056185;28;19987;-61
2022/12/04 11:58:47;;;;;;;;;;;;;;;;;;5065504;28;20268;-62
2022/12/04 12:01:19;;;;;;;;;;;;;;;;;;5063624;28;19925;-62
2022/12/04 12:03:50;;;;;;;;;;;;;;;;;;5062523;28;19924;-62
2022/12/04 12:06:21;;;;;;;;;;;;;;;;;;5074290;28;19968;-63
2022/12/04 12:09:05;;;;;;;;;;;;;;;;;;5059687;28;19928;-64
2022/12/04 12:11:31;;;;;;;;;;;;;;;;;;5065082;28;19946;-63
2022/12/04 12:14:16;;;;;;;;;;;;;;;;;;5058914;28;20636;-62
2022/12/04 12:16:44;;;;;;;;;;;;;;;;;;5059746;28;20379;-62
2022/12/04 12:19:10;;;;;;;;;;;;;;;;;;5062483;28;19932;-63
2022/12/04 12:21:35;;;;;;;;;;;;;;;;;;5065557;28;19932;-63
2022/12/04 12:24:08;;;;;;;;;;;;;;;;;;5062560;28;20367;-63
2022/12/04 12:26:39;;;;;;;;;;;;;;;;;;5062086;28;20019;-63
2022/12/04 12:29:23;;;;;;;;;;;;;;;;;;5062590;28;20022;-63
2022/12/04 12:31:58;;;;;;;;;;;;;;;;;;5061459;28;19924;-62
2022/12/04 12:34:49;;;;;;;;;;;;;;;;;;5074591;28;19931;-62
2022/12/04 12:37:27;;;;;;;;;;;;;;;;;;5056716;28;20796;-62
2022/12/04 12:40:01;;;;;;;;;;;;;;;;;;5061418;28;19978;-62
2022/12/04 12:42:29;;;;;;;;;;;;;;;;;;5064946;28;19935;-63
2022/12/04 12:45:05;;;;;;;;;;;;;;;;;;5061382;28;20411;-61
2022/12/04 12:47:35;;;;;;;;;;;;;;;;;;5064861;28;19935;-61
2022/12/04 12:50:03;;;;;;;;;;;;;;;;;;5060653;28;19931;-64
2022/12/04 12:52:37;;;;;;;;;;;;;;;;;;5062676;28;19925;-61
2022/12/04 12:55:21;;;;;;;;;;;;;;;;;;5058019;28;19971;-63
2022/12/04 12:57:48;;;;;;;;;;;;;;;;;;5064556;28;19966;-61
2022/12/04 13:00:13;;;;;;;;;;;;;;;;;;5065415;28;20387;-63
2022/12/04 13:02:46;;;;;;;;;;;;;;;;;;5062775;28;19974;-61
2022/12/04 13:05:13;;;;;;;;;;;;;;;;;;5058555;28;19928;-63
2022/12/04 13:07:38;;;;;;;;;;;;;;;;;;5061706;28;19928;-63
2022/12/04 13:10:11;;;;;;;;;;;;;;;;;;5062512;28;19932;-63
2022/12/04 13:12:57;;;;;;;;;;;;;;;;;;5059361;28;19935;-63
2022/12/04 13:15:25;;;;;;;;;;;;;;;;;;5060031;28;19925;-63
2022/12/04 13:17:53;;;;;;;;;;;;;;;;;;5061139;28;20051;-63
2022/12/04 13:20:24;;;;;;;;;;;;;;;;;;5064443;28;19936;-62
2022/12/04 13:23:14;;;;;;;;;;;;;;;;;;5064487;28;19929;-63
2022/12/04 13:25:48;;;;;;;;;;;;;;;;;;5061849;28;19929;-61
2022/12/04 13:28:30;;;;;;;;;;;;;;;;;;5062245;28;20313;-63
2022/12/04 13:31:04;;;;;;;;;;;;;;;;;;5060103;28;19924;-62
2022/12/04 13:33:42;;;;;;;;;;;;;;;;;;5061503;28;19932;-61
2022/12/04 13:36:07;;;;;;;;;;;;;;;;;;5060538;28;19936;-62
2022/12/04 13:38:41;;;;;;;;;;;;;;;;;;5061886;28;20669;-62
2022/12/04 13:41:14;;;;;;;;;;;;;;;;;;5063126;28;19924;-63
2022/12/04 13:43:40;;;;;;;;;;;;;;;;;;5057233;28;20036;-62
2022/12/04 13:46:06;;;;;;;;;;;;;;;;;;5064579;28;20587;-61
2022/12/04 13:48:39;;;;;;;;;;;;;;;;;;5067087;28;19929;-61
2022/12/04 13:51:33;;;;;;;;;;;;;;;;;;5061311;28;19929;-62
2022/12/04 13:54:00;;;;;;;;;;;;;;;;;;5058688;28;20310;-62
2022/12/04 13:56:27;;;;;;;;;;;;;;;;;;5060350;28;19933;-62
2022/12/04 13:59:02;;;;;;;;;;;;;;;;;;5065205;28;19938;-62
2022/12/04 14:01:32;;;;;;;;;;;;;;;;;;5064100;28;20439;-63
2022/12/04 14:03:58;;;;;;;;;;;;;;;;;;5064940;28;19925;-62
2022/12/04 14:06:36;;;;;;;;;;;;;;;;;;5063915;28;20425;-63
2022/12/04 14:09:03;;;;;;;;;;;;;;;;;;5063429;28;20391;-63
2022/12/04 14:11:32;;;;;;;;;;;;;;;;;;5060468;28;19933;-63
2022/12/04 14:13:57;;;;;;;;;;;;;;;;;;5060152;28;19933;-63
2022/12/04 14:16:24;;;;;;;;;;;;;;;;;;5062232;28;19924;-62
2022/12/04 14:18:53;;;;;;;;;;;;;;;;;;5062085;28;19970;-62
2022/12/04 14:21:19;;;;;;;;;;;;;;;;;;5062156;28;20616;-63
2022/12/04 14:23:44;;;;;;;;;;;;;;;;;;5061797;28;19928;-62
2022/12/04 14:26:24;;;;;;;;;;;;;;;;;;5060525;28;19935;-62
2022/12/04 14:28:49;;;;;;;;;;;;;;;;;;5061463;28;20737;-63
2022/12/04 14:31:24;;;;;;;;;;;;;;;;;;5061614;28;19924;-61
2022/12/04 14:33:51;;;;;;;;;;;;;;;;;;5061633;28;19924;-61
2022/12/04 14:36:19;;;;;;;;;;;;;;;;;;5060044;28;19957;-62
2022/12/04 14:38:46;;;;;;;;;;;;;;;;;;5059882;28;19928;-62
2022/12/04 14:41:11;;;;;;;;;;;;;;;;;;5063509;28;19981;-62
2022/12/04 14:43:38;;;;;;;;;;;;;;;;;;5062953;28;20409;-62
2022/12/04 14:46:26;;;;;;;;;;;;;;;;;;5060856;28;20280;-62
2022/12/04 14:49:03;;;;;;;;;;;;;;;;;;5058309;28;20333;-62
2022/12/04 14:51:36;;;;;;;;;;;;;;;;;;5061582;28;19924;-62
2022/12/04 14:54:02;;;;;;;;;;;;;;;;;;5057817;28;20319;-62
2022/12/04 14:56:39;;;;;;;;;;;;;;;;;;5060139;28;19935;-62
2022/12/04 14:59:06;;;;;;;;;;;;;;;;;;5063862;28;19951;-61
2022/12/04 15:01:37;;;;;;;;;;;;;;;;;;5060916;28;20602;-61
2022/12/04 15:04:26;;;;;;;;;;;;;;;;;;5059400;28;19928;-62
2022/12/04 15:06:52;;;;;;;;;;;;;;;;;;5048141;28;19927;-62
2022/12/04 15:12:33;;;;;;;;;;;;;;;;;;5023867;28;19939;-61
2022/12/04 15:15:21;;;;;;;;;;;;;;;;;;5059005;28;20406;-62
2022/12/04 15:17:59;;;;;;;;;;;;;;;;;;5063591;28;20274;-61
2022/12/04 15:20:25;;;;;;;;;;;;;;;;;;5066036;28;19975;-61
2022/12/04 15:22:52;;;;;;;;;;;;;;;;;;5066387;28;19983;-62
2022/12/04 15:25:19;;;;;;;;;;;;;;;;;;5065276;28;19924;-63
2022/12/04 15:27:46;;;;;;;;;;;;;;;;;;5062960;28;20379;-63
2022/12/04 15:30:15;;;;;;;;;;;;;;;;;;5063716;28;19928;-64
2022/12/04 15:32:41;;;;;;;;;;;;;;;;;;5060271;28;20015;-60
2022/12/04 15:35:08;;;;;;;;;;;;;;;;;;5060634;28;19950;-62
2022/12/04 15:37:33;;;;;;;;;;;;;;;;;;5065504;28;19947;-62
2022/12/04 15:39:59;;;;;;;;;;;;;;;;;;5062546;28;20311;-62
2022/12/04 15:42:26;;;;;;;;;;;;;;;;;;5065213;28;20011;-62
2022/12/04 15:45:01;;;;;;;;;;;;;;;;;;5064186;28;19940;-62
2022/12/04 15:47:27;;;;;;;;;;;;;;;;;;5068003;28;19928;-61
2022/12/04 15:49:53;;;;;;;;;;;;;;;;;;5066071;28;19932;-61
2022/12/04 15:52:20;;;;;;;;;;;;;;;;;;5059132;28;20379;-63
2022/12/04 15:54:56;;;;;;;;;;;;;;;;;;5060880;28;20781;-62
2022/12/04 15:57:26;;;;;;;;;;;;;;;;;;5067981;28;19931;-63
2022/12/04 15:59:53;;;;;;;;;;;;;;;;;;5063924;28;19925;-61
2022/12/04 16:02:36;;;;;;;;;;;;;;;;;;5065284;28;19924;-61
2022/12/04 16:05:11;;;;;;;;;;;;;;;;;;5065218;28;20024;-61
2022/12/04 16:07:46;;;;;;;;;;;;;;;;;;5063827;28;20482;-61
2022/12/04 16:10:25;;;;;;;;;;;;;;;;;;5063116;28;20348;-60
2022/12/04 16:12:54;;;;;;;;;;;;;;;;;;5059276;28;20003;-61
2022/12/04 16:15:20;;;;;;;;;;;;;;;;;;5062590;28;19924;-61
2022/12/04 16:17:45;;;;;;;;;;;;;;;;;;5064111;28;19929;-61
2022/12/04 16:20:12;;;;;;;;;;;;;;;;;;5062436;28;19929;-61
2022/12/04 16:22:38;;;;;;;;;;;;;;;;;;5063288;28;19928;-61
2022/12/04 16:25:04;;;;;;;;;;;;;;;;;;5058943;28;19925;-60
2022/12/04 16:27:29;;;;;;;;;;;;;;;;;;5061411;28;19950;-60
2022/12/04 16:29:55;;;;;;;;;;;;;;;;;;5056598;28;19978;-61
2022/12/04 16:32:21;;;;;;;;;;;;;;;;;;5055283;28;20015;-61
2022/12/04 16:34:47;;;;;;;;;;;;;;;;;;5059701;28;19928;-61
2022/12/04 16:37:16;;;;;;;;;;;;;;;;;;5063295;28;19924;-62
2022/12/04 16:39:41;;;;;;;;;;;;;;;;;;5064230;28;20366;-60
2022/12/04 16:42:15;;;;;;;;;;;;;;;;;;5061513;28;19971;-61
2022/12/04 16:44:40;;;;;;;;;;;;;;;;;;5061172;28;19981;-60
2022/12/04 16:47:05;;;;;;;;;;;;;;;;;;5062374;28;20345;-60
2022/12/04 16:49:30;;;;;;;;;;;;;;;;;;5061830;28;19935;-60
2022/12/04 16:51:56;;;;;;;;;;;;;;;;;;5058029;28;20004;-60
2022/12/04 16:54:21;;;;;;;;;;;;;;;;;;5059664;28;19927;-60
2022/12/04 16:56:46;;;;;;;;;;;;;;;;;;5062807;28;19955;-62
2022/12/04 16:59:11;;;;;;;;;;;;;;;;;;5065715;28;19924;-61
2022/12/04 17:01:38;;;;;;;;;;;;;;;;;;5056734;28;20021;-62
2022/12/04 17:04:04;;;;;;;;;;;;;;;;;;5060325;28;19925;-61
2022/12/04 17:06:30;;;;;;;;;;;;;;;;;;5059028;28;20030;-62
2022/12/04 17:08:56;;;;;;;;;;;;;;;;;;5062978;28;19979;-61
2022/12/04 17:11:21;;;;;;;;;;;;;;;;;;5059463;28;19964;-62